createdAt,value
2022-09-02T00:04:25.038Z,0.2
2022-09-02T00:09:25.299Z,0.1
2022-09-02T00:14:24.995Z,0.2
2022-09-02T00:19:30.832Z,0.2
2022-09-02T00:24:25.037Z,0.2
2022-09-02T00:29:25.254Z,0.2
2022-09-02T00:34:25.021Z,0.1
2022-09-02T00:39:26.029Z,0.2
2022-09-02T00:44:25.053Z,0.2
2022-09-02T00:49:25.183Z,0.2
2022-09-02T00:54:25.065Z,0.2
2022-09-02T00:59:25.121Z,0.2
2022-09-02T01:04:25.014Z,0.3
2022-09-02T01:09:25.037Z,0.2
2022-09-02T01:14:28.627Z,0.1
2022-09-02T01:19:25.081Z,0.1
2022-09-02T01:24:25.037Z,0.2
2022-09-02T01:29:25.024Z,0.2
2022-09-02T01:34:25.052Z,0.2
2022-09-02T01:39:25.019Z,0.1
2022-09-02T01:44:25.068Z,0.2
2022-09-02T01:49:25.022Z,0.2
2022-09-02T01:54:25.047Z,0.2
2022-09-02T01:59:25.112Z,0.2
2022-09-02T02:04:26.096Z,0.2
2022-09-02T02:09:25.039Z,0.2
2022-09-02T02:14:25.398Z,0.2
2022-09-02T02:19:25.132Z,0.2
2022-09-02T02:24:25.033Z,0.2
2022-09-02T02:29:25.056Z,0.2
2022-09-02T02:34:25.087Z,0.2
2022-09-02T02:39:25.065Z,0.3
2022-09-02T02:44:25.085Z,0.2
2022-09-02T02:49:25.048Z,0.2
2022-09-02T02:54:34.755Z,0.2
2022-09-02T02:59:25.331Z,0.3
2022-09-02T03:04:25.086Z,0.2
2022-09-02T03:09:25.084Z,0.2
2022-09-02T03:14:25.170Z,0.2
2022-09-02T03:19:25.060Z,0.1
2022-09-02T03:24:25.077Z,0.2
2022-09-02T03:29:25.077Z,0.2
2022-09-02T03:34:25.315Z,0.2
2022-09-02T03:39:26.619Z,0.2
2022-09-02T03:44:25.089Z,0.2
2022-09-02T03:49:26.790Z,0.1
2022-09-02T03:54:25.128Z,0.1
2022-09-02T03:59:25.158Z,0.2
2022-09-02T04:04:25.092Z,0.2
2022-09-02T04:09:26.126Z,0.2
2022-09-02T04:14:25.111Z,0.2
2022-09-02T04:19:25.093Z,0.3
2022-09-02T04:24:25.085Z,0.2
2022-09-02T04:29:25.563Z,0.3
2022-09-02T04:34:25.154Z,0.2
2022-09-02T04:39:25.143Z,0.3
2022-09-02T04:44:25.091Z,0.3
2022-09-02T04:49:25.129Z,0.4
2022-09-02T04:54:25.077Z,0.4
2022-09-02T04:59:29.898Z,0.5
2022-09-02T05:04:25.206Z,0.5
2022-09-02T05:09:25.076Z,0.6
2022-09-02T05:14:25.164Z,0.9
2022-09-02T05:19:25.112Z,0.8
2022-09-02T05:24:28.167Z,0.9
2022-09-02T05:29:25.123Z,0.1
2022-09-02T05:34:25.593Z,0.11
2022-09-02T05:39:25.109Z,0.11
2022-09-02T05:44:25.152Z,0.11
2022-09-02T05:49:25.147Z,0.12
2022-09-02T05:54:25.575Z,0.12
2022-09-02T05:59:25.142Z,0.13
2022-09-02T06:04:25.138Z,0.13
2022-09-02T06:09:25.348Z,0.14
2022-09-02T06:14:25.153Z,0.14
2022-09-02T06:19:25.113Z,0.15
2022-09-02T06:24:25.466Z,0.15
2022-09-02T06:29:25.194Z,0.16
2022-09-02T06:34:25.173Z,0.19
2022-09-02T06:39:26.159Z,0.19
2022-09-02T06:44:25.401Z,0.19
2022-09-02T06:49:25.163Z,0.18
2022-09-02T06:54:25.141Z,0.19
2022-09-02T06:59:25.188Z,0.2
2022-09-02T07:04:25.160Z,0.19
2022-09-02T07:09:25.136Z,0.2
2022-09-02T07:14:27.240Z,0.2
2022-09-02T07:19:25.183Z,0.2
2022-09-02T07:24:25.202Z,0.21
2022-09-02T07:29:25.241Z,0.23
2022-09-02T07:34:25.172Z,0.23
2022-09-02T07:39:25.119Z,0.25
2022-09-02T07:44:25.691Z,0.26
2022-09-02T07:49:25.194Z,0.28
2022-09-02T07:54:25.147Z,0.31
2022-09-02T07:59:25.247Z,0.34
2022-09-02T08:04:25.274Z,0.36
2022-09-02T08:09:25.221Z,0.42
2022-09-02T08:14:26.201Z,0.58
2022-09-02T08:19:25.204Z,0.8
2022-09-02T08:24:25.212Z,5.1
2022-09-02T08:29:25.216Z,6.49
2022-09-02T08:34:25.176Z,5.3
2022-09-02T08:39:25.186Z,5.95
2022-09-02T08:44:25.167Z,9.23
2022-09-02T08:49:25.164Z,9.2
2022-09-02T08:54:25.213Z,9.32
2022-09-02T08:59:25.525Z,9.62
2022-09-02T09:04:25.182Z,9.54
2022-09-02T09:09:26.088Z,9.46
2022-09-02T09:14:26.181Z,9.24
2022-09-02T09:19:26.211Z,9.22
2022-09-02T09:24:25.191Z,8.73
2022-09-02T09:29:25.193Z,8.13
2022-09-02T09:34:25.170Z,8.17
2022-09-02T09:39:25.144Z,7.92
2022-09-02T09:44:25.223Z,9.64
2022-09-02T09:49:25.182Z,8.93
2022-09-02T09:54:25.161Z,9.22
2022-09-02T09:59:25.234Z,9.16
2022-09-02T10:04:42.674Z,9.58
2022-09-02T10:09:28.237Z,8.97
2022-09-02T10:14:29.190Z,8.17
2022-09-02T10:19:25.155Z,7.45
2022-09-02T10:24:25.179Z,8.94
2022-09-02T10:29:25.291Z,6.61
2022-09-02T10:34:25.222Z,1.2
2022-09-02T10:39:25.218Z,4.76
2022-09-02T10:44:25.218Z,1.76
2022-09-02T10:49:25.203Z,6.65
2022-09-02T10:54:25.245Z,8.88
2022-09-02T10:59:25.243Z,8.41
2022-09-02T11:04:26.185Z,8.91
2022-09-02T11:14:26.262Z,4.72
2022-09-02T11:19:25.221Z,0.54
2022-09-02T11:24:26.227Z,0.46
2022-09-02T11:29:25.233Z,0.47
2022-09-02T11:34:25.192Z,0.48
2022-09-02T11:39:36.376Z,0.33
2022-09-02T11:44:29.508Z,0.3
2022-09-02T11:49:25.220Z,0.35
2022-09-02T11:54:26.229Z,0.39
2022-09-02T11:59:25.288Z,0.41
2022-09-02T12:05:00.152Z,0.21
2022-09-02T12:09:25.313Z,0.3
2022-09-02T12:14:25.500Z,0.28
2022-09-02T12:19:25.253Z,0.32
2022-09-02T12:24:26.330Z,0.49
2022-09-02T12:29:25.379Z,0.42
2022-09-02T12:34:26.324Z,0.27
2022-09-02T12:39:25.290Z,0.27
2022-09-02T12:44:25.304Z,0.28
2022-09-02T12:49:25.280Z,0.27
2022-09-02T12:54:25.231Z,0.26
2022-09-02T12:59:25.283Z,0.25
2022-09-02T13:04:25.260Z,0.25
2022-09-02T13:09:25.263Z,0.25
2022-09-02T13:14:25.514Z,0.26
2022-09-02T13:19:25.282Z,0.25
2022-09-02T13:24:25.264Z,0.24
2022-09-02T13:29:25.241Z,0.24
2022-09-02T13:34:25.310Z,0.18
2022-09-02T13:39:25.309Z,0.17
2022-09-02T13:44:25.262Z,0.21
2022-09-02T13:49:25.273Z,0.2
2022-09-02T13:54:27.429Z,0.19
2022-09-02T13:59:26.299Z,0.19
2022-09-02T14:04:25.269Z,0.19
2022-09-02T14:09:25.280Z,0.2
2022-09-02T14:14:25.295Z,0.21
2022-09-02T14:19:25.394Z,0.19
2022-09-02T14:24:25.371Z,0.2
2022-09-02T14:29:25.299Z,0.2
2022-09-02T14:34:25.332Z,0.19
2022-09-02T14:39:25.314Z,0.24
2022-09-02T14:44:25.276Z,0.2
2022-09-02T14:49:25.506Z,0.17
2022-09-02T14:54:25.290Z,0.17
2022-09-02T15:09:25.462Z,0.14
2022-09-02T15:14:25.392Z,0.16
2022-09-02T15:19:25.294Z,0.16
2022-09-02T15:24:25.311Z,0.16
2022-09-02T15:29:29.009Z,0.17
2022-09-02T15:34:25.351Z,0.16
2022-09-02T15:39:25.355Z,0.16
2022-09-02T15:44:25.281Z,0.17
2022-09-02T15:49:25.319Z,0.15
2022-09-02T15:54:25.385Z,0.15
2022-09-02T15:59:25.304Z,0.15
2022-09-02T16:04:25.331Z,0.15
2022-09-02T16:09:25.351Z,0.16
2022-09-02T16:14:25.355Z,0.13
2022-09-02T16:19:26.273Z,0.13
2022-09-02T16:24:26.321Z,0.12
2022-09-02T16:29:25.367Z,0.12
2022-09-02T16:34:25.303Z,0.11
2022-09-02T16:39:25.400Z,0.1
2022-09-02T16:44:25.343Z,0.1
2022-09-02T16:49:25.318Z,0.9
2022-09-02T16:54:31.046Z,0.9
2022-09-02T16:59:25.453Z,0.8
2022-09-02T17:04:25.575Z,0.7
2022-09-02T17:09:25.367Z,0.6
2022-09-02T17:14:25.352Z,0.6
2022-09-02T17:19:32.032Z,0.5
2022-09-02T17:24:25.482Z,0.5
2022-09-02T17:29:48.766Z,0.4
2022-09-02T17:34:25.357Z,0.4
2022-09-02T17:39:25.409Z,0.3
2022-09-02T17:44:25.377Z,0.3
2022-09-02T17:49:25.361Z,0.2
2022-09-02T17:54:26.318Z,0.2
2022-09-02T17:59:25.346Z,0.1
2022-09-02T18:04:25.354Z,0.2
2022-09-02T18:09:26.384Z,0.2
2022-09-02T18:14:25.382Z,0.2
2022-09-02T18:19:25.442Z,0.1
2022-09-02T18:24:25.360Z,0.1
2022-09-02T18:29:25.335Z,0.2
2022-09-02T18:34:30.268Z,0.2
2022-09-02T18:39:25.431Z,0.2
2022-09-02T18:44:25.432Z,0.1
2022-09-02T18:49:25.394Z,0.2
2022-09-02T18:54:25.393Z,0.2
2022-09-02T18:59:28.637Z,0.2
2022-09-02T19:04:29.477Z,0.2
2022-09-02T19:09:25.399Z,0.2
2022-09-02T19:14:25.378Z,0.2
2022-09-02T19:19:25.419Z,0.2
2022-09-02T19:24:25.401Z,0.2
2022-09-02T19:29:26.389Z,0.2
2022-09-02T19:34:25.447Z,0.2
2022-09-02T19:39:25.405Z,0.2
2022-09-02T19:44:25.381Z,0.2
2022-09-02T19:49:25.393Z,0.1
2022-09-02T19:54:25.495Z,0.2
2022-09-02T19:59:25.427Z,0.2
2022-09-02T20:04:29.883Z,0.3
2022-09-02T20:09:25.386Z,0.2
2022-09-02T20:14:25.482Z,0.1
2022-09-02T20:19:28.408Z,0.2
2022-09-02T20:24:25.515Z,0.2
2022-09-02T20:29:29.423Z,0.1
2022-09-02T20:34:29.400Z,0.2
2022-09-02T20:39:29.535Z,0.2
2022-09-02T20:44:29.441Z,0.2
2022-09-02T20:49:29.432Z,0.2
2022-09-02T20:54:29.391Z,0.3
2022-09-02T20:59:29.408Z,0.2
2022-09-02T21:04:29.421Z,0.2
2022-09-02T21:09:29.447Z,0.2
2022-09-02T21:14:29.407Z,0.2
2022-09-02T21:19:29.415Z,0.2
2022-09-02T21:24:29.447Z,0.1
2022-09-02T21:29:29.451Z,0.3
2022-09-02T21:34:29.411Z,0.1
2022-09-02T21:39:29.597Z,0.2
2022-09-02T21:44:29.431Z,0.1
2022-09-02T21:49:29.426Z,0.2
2022-09-02T21:54:29.423Z,0.1
2022-09-02T21:59:29.467Z,0.2
2022-09-02T22:04:29.435Z,0.2
2022-09-02T22:09:29.485Z,0.2
2022-09-02T22:14:29.528Z,0.2
2022-09-02T22:19:29.427Z,0.2
2022-09-02T22:24:29.489Z,0.2
2022-09-02T22:29:29.440Z,0.2
2022-09-02T22:34:29.475Z,0.2
2022-09-02T22:39:30.491Z,0.3
2022-09-02T22:44:29.449Z,0.2
2022-09-02T22:49:29.515Z,0.2
2022-09-02T22:54:29.461Z,0.3
2022-09-02T22:59:29.463Z,0.2
2022-09-02T23:04:29.415Z,0.2
2022-09-02T23:09:29.499Z,0.2
2022-09-02T23:14:29.487Z,0.3
2022-09-02T23:19:29.964Z,0.2
2022-09-02T23:24:29.515Z,0.3
2022-09-02T23:29:29.490Z,0.2
2022-09-02T23:34:29.460Z,0.2
2022-09-02T23:39:29.570Z,0.2
2022-09-02T23:44:29.462Z,0.2
2022-09-02T23:49:29.455Z,0.2
2022-09-02T23:54:29.499Z,0.2
2022-09-02T23:59:29.455Z,0.1
